Tafton, Pennsylvania
Current Conditions -  °F | °C
As of 11:53 PM on Sunday 19 Oct 2014 (Local Time) from KMPO Reporting Station
Clear Clear  
Wind Chill: 27°   Ceiling: Unl
Heat Index: 35°   Visibility: 10mi
Dew Point: 26°   Wind: 10mph
Humidity: 70%   Direction: 320°NW
Pressure: 30.02"   Gusts: NA
Location:  41.4°N, 75.18°W
Report Text: KMPO 200353Z AUTO 32009KT 10SM CLR 02/M03 A3002 RMK AO2 SLP180 T00171033 TSNO
Loading
Personal Weather Stations






























Interactive Weather Map
Tropical Storm Tracking
New forecast layout! Learn more

10-Day Weather Forecast

Advertisements
Track Severe Weather on mobile